Time;durP1;ratioP1;P1;durP2;ratioP2;P2;SDS_P1;SDS_P2;PMS_P1;PMS_P2;Temp;Humidity;BMP_temperature;BMP_pressure;BME280_temperature;BME280_humidity;BME280_pressure;Samples;Min_cycle;Max_cycle;Signal;HPM_P1;HPM_P2
2023/05/30 00:02:17;;;;;;;5.30;3.17;;;;;;;17.42;55.08;98306.56;5058642;28;20217;-77
2023/05/30 00:04:44;;;;;;;5.07;3.97;;;;;;;17.45;55.60;98319.50;5057625;28;20212;-77
2023/05/30 00:07:11;;;;;;;4.37;3.33;;;;;;;17.44;55.20;98325.94;5057032;28;20232;-77
2023/05/30 00:09:37;;;;;;;4.57;3.40;;;;;;;17.43;55.22;98328.88;5057024;28;20251;-77
2023/05/30 00:12:04;;;;;;;5.30;3.10;;;;;;;17.36;55.87;98342.50;5056888;28;20216;-77
2023/05/30 00:14:30;;;;;;;4.87;3.57;;;;;;;17.36;56.27;98345.19;5056432;28;20664;-77
2023/05/30 00:16:58;;;;;;;5.13;3.47;;;;;;;17.20;56.09;98340.72;5056249;28;20233;-77
2023/05/30 00:19:24;;;;;;;5.27;3.67;;;;;;;17.24;56.57;98349.91;5056663;28;20215;-77
2023/05/30 00:21:52;;;;;;;5.57;3.57;;;;;;;17.23;56.80;98340.22;5056423;28;20228;-77
2023/05/30 00:24:19;;;;;;;4.90;3.40;;;;;;;17.18;56.39;98350.94;5056367;28;20205;-77
2023/05/30 00:26:45;;;;;;;4.20;3.30;;;;;;;17.13;57.25;98344.69;5056261;28;20221;-77
2023/05/30 00:29:11;;;;;;;4.33;3.07;;;;;;;17.13;56.95;98350.06;5056310;28;20230;-77
2023/05/30 00:31:38;;;;;;;3.40;2.90;;;;;;;17.08;57.36;98358.06;5056240;28;20232;-77
2023/05/30 00:34:04;;;;;;;5.10;3.77;;;;;;;17.12;57.42;98354.63;5055926;28;20672;-77
2023/05/30 00:36:31;;;;;;;5.07;3.37;;;;;;;17.13;57.64;98353.56;5056287;28;20321;-77
2023/05/30 00:38:57;;;;;;;5.80;3.50;;;;;;;17.10;57.27;98346.00;5056576;28;20287;-77
2023/05/30 00:41:23;;;;;;;6.73;3.40;;;;;;;17.11;56.89;98355.72;5056349;28;20212;-77
2023/05/30 00:43:50;;;;;;;6.83;3.30;;;;;;;17.15;57.38;98350.63;5056553;28;20233;-77
2023/05/30 00:46:17;;;;;;;4.00;3.13;;;;;;;17.19;56.86;98346.38;5056485;28;20237;-77
2023/05/30 00:48:43;;;;;;;6.07;3.73;;;;;;;17.19;57.03;98352.53;5056193;28;20221;-77
2023/05/30 00:51:11;;;;;;;5.93;3.40;;;;;;;17.13;57.52;98344.69;5056198;28;20252;-77
2023/05/30 00:53:39;;;;;;;5.93;3.40;;;;;;;17.06;57.97;98344.88;5056362;28;20205;-77
2023/05/30 00:56:07;;;;;;;4.97;3.63;;;;;;;17.08;57.58;98344.63;5055329;28;20236;-77
2023/05/30 00:58:33;;;;;;;4.07;3.40;;;;;;;17.04;57.59;98341.66;5056247;28;20208;-77
2023/05/30 01:01:01;;;;;;;4.20;3.73;;;;;;;16.97;58.48;98341.03;5055863;28;20672;-77
2023/05/30 01:03:28;;;;;;;5.27;3.40;;;;;;;16.95;57.98;98337.78;5056066;28;20205;-77
2023/05/30 01:05:55;;;;;;;4.57;3.30;;;;;;;16.94;58.07;98346.09;5055960;28;20229;-77
2023/05/30 01:08:21;;;;;;;6.53;3.17;;;;;;;16.91;58.23;98343.91;5056184;28;20232;-77
2023/05/30 01:10:51;;;;;;;4.40;3.17;;;;;;;16.92;58.59;98353.63;5056045;28;20205;-77
2023/05/30 01:13:33;;;;;;;4.67;3.60;;;;;;;16.89;58.48;98352.25;5056194;28;20209;-76
2023/05/30 01:16:06;;;;;;;5.23;3.40;;;;;;;16.82;58.86;98348.13;5055571;28;20730;-77
2023/05/30 01:18:40;;;;;;;4.37;3.43;;;;;;;16.83;59.11;98347.06;5055645;28;20181;-77
2023/05/30 01:21:10;;;;;;;3.77;3.37;;;;;;;16.73;59.58;98337.00;5056314;28;20198;-77
2023/05/30 01:24:06;;;;;;;7.00;3.67;;;;;;;16.62;59.58;98337.97;5055747;28;20194;-77
2023/05/30 01:26:36;;;;;;;5.97;3.70;;;;;;;16.59;59.99;98338.44;5055686;28;20229;-77
2023/05/30 01:29:04;;;;;;;7.93;3.33;;;;;;;16.59;60.27;98338.44;5055311;28;20700;-77
2023/05/30 01:31:33;;;;;;;4.20;3.10;;;;;;;16.63;59.79;98331.53;5055574;28;20212;-77
2023/05/30 01:34:02;;;;;;;4.90;3.53;;;;;;;16.63;60.08;98331.53;5055670;28;20205;-77
2023/05/30 01:36:29;;;;;;;5.67;3.50;;;;;;;16.65;59.70;98318.66;5055530;28;20221;-77
2023/05/30 01:38:56;;;;;;;5.90;3.50;;;;;;;16.62;60.39;98329.09;5055700;28;20201;-77
2023/05/30 01:41:43;;;;;;;5.37;3.70;;;;;;;16.60;60.04;98325.84;5055417;28;20205;-77
2023/05/30 01:44:17;;;;;;;5.57;3.30;;;;;;;16.63;60.12;98326.16;5055370;28;20189;-77
2023/05/30 01:46:54;;;;;;;7.03;3.70;;;;;;;16.58;59.77;98326.09;5055260;28;20260;-77
2023/05/30 01:49:28;;;;;;;4.60;3.67;;;;;;;16.52;60.55;98323.59;5055190;28;20209;-77
2023/05/30 01:51:57;;;;;;;4.40;3.43;;;;;;;16.47;61.06;98323.53;5054886;28;20633;-77
2023/05/30 01:54:26;;;;;;;5.47;3.37;;;;;;;16.40;61.34;98325.59;5055259;28;20213;-77
2023/05/30 01:56:55;;;;;;;5.60;3.47;;;;;;;16.42;61.04;98329.63;5054938;28;20587;-77
2023/05/30 01:59:25;;;;;;;4.70;3.40;;;;;;;16.44;60.98;98329.41;5055059;28;20542;-77
2023/05/30 02:01:52;;;;;;;4.50;3.60;;;;;;;16.44;61.07;98332.09;5055053;28;20202;-77
2023/05/30 02:04:19;;;;;;;4.53;3.33;;;;;;;16.45;61.08;98337.19;5054669;28;20212;-77
2023/05/30 02:06:45;;;;;;;4.80;3.60;;;;;;;16.37;62.11;98321.50;5054792;28;20591;-77
2023/05/30 02:09:11;;;;;;;4.27;3.23;;;;;;;16.37;62.01;98331.44;5054977;28;20255;-77
2023/05/30 02:11:38;;;;;;;5.47;3.70;;;;;;;16.25;62.16;98331.56;5055042;28;20338;-77
2023/05/30 02:14:08;;;;;;;6.00;3.40;;;;;;;16.28;61.89;98333.72;5054799;28;20205;-77
2023/05/30 02:16:35;;;;;;;5.40;3.53;;;;;;;16.20;62.11;98328.78;5054481;28;20240;-77
2023/05/30 02:19:01;;;;;;;5.43;3.50;;;;;;;16.20;62.26;98327.97;5054424;28;20684;-77
2023/05/30 02:21:28;;;;;;;6.07;3.67;;;;;;;16.14;62.61;98328.97;5054712;28;20217;-77
2023/05/30 02:23:54;;;;;;;5.23;3.50;;;;;;;16.16;63.06;98333.03;5054513;28;20231;-77
2023/05/30 02:26:21;;;;;;;8.03;3.60;;;;;;;16.08;62.68;98320.06;5055010;28;20225;-77
2023/05/30 02:28:47;;;;;;;6.33;3.73;;;;;;;16.20;62.92;98330.66;5054322;28;20229;-77
2023/05/30 02:31:13;;;;;;;4.47;3.50;;;;;;;16.05;63.44;98333.94;5054428;28;20211;-77
2023/05/30 02:33:40;;;;;;;4.03;3.50;;;;;;;16.02;63.57;98331.75;5053993;28;20259;-77
2023/05/30 02:36:08;;;;;;;4.13;3.20;;;;;;;16.02;64.31;98337.09;5054290;28;20227;-77
2023/05/30 02:38:35;;;;;;;5.90;3.73;;;;;;;15.96;63.99;98338.09;5054257;28;20244;-77
2023/05/30 02:41:01;;;;;;;4.20;3.40;;;;;;;16.02;63.58;98339.00;5054458;28;20259;-77
2023/05/30 02:43:31;;;;;;;4.90;3.30;;;;;;;15.95;64.08;98335.66;5054391;28;20220;-77
2023/05/30 02:45:58;;;;;;;3.77;3.30;;;;;;;15.89;64.20;98331.28;5053879;28;20229;-77
2023/05/30 02:48:24;;;;;;;5.77;3.73;;;;;;;15.84;64.59;98340.06;5054124;28;20216;-77
2023/05/30 02:50:50;;;;;;;5.17;3.50;;;;;;;15.86;64.72;98335.28;5054098;28;20221;-77
2023/05/30 02:53:17;;;;;;;5.07;4.03;;;;;;;15.79;64.85;98337.31;5054357;28;20213;-77
2023/05/30 02:55:43;;;;;;;6.10;3.63;;;;;;;15.80;64.91;98335.44;5053994;28;20225;-77
2023/05/30 02:58:11;;;;;;;5.57;3.53;;;;;;;15.80;64.97;98338.13;5053972;28;20209;-77
2023/05/30 03:00:38;;;;;;;7.37;3.30;;;;;;;15.74;65.56;98337.22;5053609;28;20734;-77
2023/05/30 03:03:05;;;;;;;6.00;3.87;;;;;;;15.75;65.25;98338.84;5053876;28;20208;-77
2023/05/30 03:05:32;;;;;;;7.03;3.63;;;;;;;15.73;65.60;98349.00;5053589;28;20225;-77
2023/05/30 03:07:59;;;;;;;4.30;3.40;;;;;;;15.75;65.75;98343.41;5053995;28;20209;-77
2023/05/30 03:10:25;;;;;;;7.50;3.80;;;;;;;15.65;66.25;98346.72;5053882;28;20248;-77
2023/05/30 03:12:51;;;;;;;4.50;3.37;;;;;;;15.66;66.06;98356.41;5053644;28;20205;-77
2023/05/30 03:15:20;;;;;;;4.60;3.40;;;;;;;15.69;66.21;98350.56;5053925;28;20209;-77
2023/05/30 03:17:47;;;;;;;6.37;3.40;;;;;;;15.66;66.04;98344.88;5053078;28;20242;-77
2023/05/30 03:20:13;;;;;;;4.83;3.60;;;;;;;15.63;66.37;98340.00;5053515;28;20197;-77
2023/05/30 03:22:41;;;;;;;5.77;3.40;;;;;;;15.55;66.87;98341.22;5053448;28;20672;-77
2023/05/30 03:25:08;;;;;;;5.17;3.63;;;;;;;15.56;66.71;98358.13;5053913;28;20212;-77
2023/05/30 03:27:35;;;;;;;5.60;3.73;;;;;;;15.53;67.19;98355.91;5053304;28;20571;-77
2023/05/30 03:30:03;;;;;;;8.43;3.73;;;;;;;15.51;67.06;98342.75;5053453;28;20220;-77
2023/05/30 03:32:29;;;;;;;6.90;3.90;;;;;;;15.50;67.38;98348.34;5053220;28;20668;-77
2023/05/30 03:34:56;;;;;;;4.77;3.67;;;;;;;15.47;67.41;98355.00;5053472;28;20691;-77
2023/05/30 03:37:22;;;;;;;9.13;3.60;;;;;;;15.46;67.65;98353.38;5053624;28;20279;-77
2023/05/30 03:39:49;;;;;;;7.43;4.13;;;;;;;15.38;67.53;98351.09;5053379;28;20556;-77
2023/05/30 03:42:15;;;;;;;5.20;3.83;;;;;;;15.38;67.77;98351.09;5053437;28;20223;-77
2023/05/30 03:44:41;;;;;;;5.20;3.70;;;;;;;15.43;68.50;98359.22;5053491;28;20201;-77
2023/05/30 03:47:08;;;;;;;4.47;3.50;;;;;;;15.42;68.12;98368.31;5054226;28;20236;-77
2023/05/30 03:49:34;;;;;;;6.83;4.00;;;;;;;15.39;68.74;98362.66;5053305;28;20225;-77
2023/05/30 03:52:01;;;;;;;4.93;4.00;;;;;;;15.44;69.01;98363.56;5052831;28;20668;-77
2023/05/30 03:54:27;;;;;;;5.03;4.17;;;;;;;15.29;70.27;98368.59;5053175;28;20213;-77
2023/05/30 03:56:53;;;;;;;4.47;4.07;;;;;;;15.25;71.33;98367.44;5053453;28;20712;-77
2023/05/30 03:59:20;;;;;;;6.70;4.03;;;;;;;15.21;71.54;98378.91;5052925;28;20676;-77
2023/05/30 04:01:46;;;;;;;6.33;3.90;;;;;;;15.14;71.70;98381.72;5053495;28;20204;-77
2023/05/30 04:04:12;;;;;;;6.53;4.17;;;;;;;15.01;72.51;98386.56;5054464;28;20216;-78
2023/05/30 04:06:39;;;;;;;6.80;4.40;;;;;;;15.02;74.30;98382.81;5053611;28;20236;-77
2023/05/30 04:09:06;;;;;;;7.43;4.37;;;;;;;15.08;73.24;98376.50;5054441;28;20205;-77
2023/05/30 04:11:32;;;;;;;7.43;4.20;;;;;;;15.02;73.50;98380.16;5054989;28;20292;-77
2023/05/30 04:13:59;;;;;;;5.27;3.80;;;;;;;15.03;73.63;98387.13;5055743;28;20201;-78
2023/05/30 04:16:25;;;;;;;6.27;3.83;;;;;;;14.88;74.33;98392.19;5054848;28;20237;-78
2023/05/30 04:18:52;;;;;;;7.80;4.40;;;;;;;15.03;74.65;98393.31;5054305;28;20209;-77
2023/05/30 04:21:18;;;;;;;4.97;3.83;;;;;;;14.97;75.01;98390.75;5052997;28;20216;-77
2023/05/30 04:23:45;;;;;;;6.20;4.07;;;;;;;14.92;75.20;98399.50;5054498;28;20216;-78
2023/05/30 04:26:11;;;;;;;7.73;4.37;;;;;;;14.86;75.67;98397.78;5054603;28;20225;-78
2023/05/30 04:28:39;;;;;;;5.60;4.07;;;;;;;14.91;76.10;98400.56;5053589;28;20220;-77
2023/05/30 04:31:06;;;;;;;5.67;4.63;;;;;;;15.05;75.49;98398.41;5054571;28;20688;-77
2023/05/30 04:33:35;;;;;;;5.77;4.30;;;;;;;14.91;77.23;98387.16;5056505;28;20684;-77
2023/05/30 04:36:10;;;;;;;5.30;3.97;;;;;;;14.90;77.32;98390.91;5056748;28;20221;-77
2023/05/30 04:38:37;;;;;;;6.80;4.37;;;;;;;14.89;76.67;98400.00;5058172;28;20212;-77
2023/05/30 04:41:04;;;;;;;8.60;4.23;;;;;;;14.94;77.08;98400.09;5057627;28;20296;-77
2023/05/30 04:43:31;;;;;;;6.60;4.10;;;;;;;14.84;76.91;98410.56;5058013;28;20241;-77
2023/05/30 04:46:00;;;;;;;4.53;3.90;;;;;;;14.79;77.32;98418.50;5057670;28;20315;-77
2023/05/30 04:48:27;;;;;;;6.00;4.40;;;;;;;14.84;77.18;98412.44;5057050;28;20208;-77
2023/05/30 04:50:54;;;;;;;5.27;3.97;;;;;;;14.85;77.99;98414.91;5054738;28;20700;-77
2023/05/30 04:53:21;;;;;;;6.27;4.20;;;;;;;14.94;78.79;98420.69;5036559;28;20213;-77
2023/05/30 04:55:48;;;;;;;5.20;4.10;;;;;;;14.98;77.83;98414.63;5037657;28;20230;-77
2023/05/30 04:58:15;;;;;;;9.10;4.30;;;;;;;14.89;76.80;98421.41;5037590;28;20210;-77
2023/05/30 05:00:42;;;;;;;5.80;4.20;;;;;;;14.98;78.01;98425.34;5036927;28;20292;-77
2023/05/30 05:03:08;;;;;;;6.90;3.97;;;;;;;15.18;77.35;98420.38;5036172;28;20209;-77
2023/05/30 05:05:35;;;;;;;4.47;3.93;;;;;;;15.32;76.89;98426.22;5036032;28;20226;-77
2023/05/30 05:08:01;;;;;;;7.47;4.10;;;;;;;15.51;75.22;98425.81;5036342;28;20202;-77
2023/05/30 05:10:28;;;;;;;7.30;4.43;;;;;;;15.45;76.16;98429.47;5036582;28;20230;-77
2023/05/30 05:12:54;;;;;;;8.97;4.43;;;;;;;15.32;75.24;98429.72;5037804;28;20213;-77
2023/05/30 05:15:21;;;;;;;8.10;4.50;;;;;;;15.37;76.44;98435.22;5037191;28;20293;-77
2023/05/30 05:17:47;;;;;;;5.77;4.57;;;;;;;15.70;74.08;98427.22;5036462;28;20213;-77
2023/05/30 05:20:14;;;;;;;8.10;4.57;;;;;;;15.93;74.56;98431.63;5037151;28;20240;-77
2023/05/30 05:22:41;;;;;;;6.70;4.37;;;;;;;16.31;71.82;98429.81;5036129;28;20320;-77
2023/05/30 05:25:08;;;;;;;5.97;4.10;;;;;;;15.94;73.44;98434.09;5036913;28;20213;-77
2023/05/30 05:27:34;;;;;;;5.33;4.00;;;;;;;16.11;72.08;98431.41;5035808;28;20219;-77
2023/05/30 05:30:01;;;;;;;6.97;4.20;;;;;;;15.92;72.86;98441.53;5035869;28;20221;-77
2023/05/30 05:32:27;;;;;;;8.93;4.27;;;;;;;16.02;73.11;98435.53;5036053;28;20212;-77
2023/05/30 05:34:53;;;;;;;6.87;4.07;;;;;;;15.71;71.99;98436.91;5036349;28;20206;-77
2023/05/30 05:37:20;;;;;;;5.63;4.03;;;;;;;15.28;74.58;98446.53;5037224;28;20226;-77
2023/05/30 05:39:46;;;;;;;5.50;4.00;;;;;;;15.76;72.39;98434.31;5036977;28;20206;-77
2023/05/30 05:42:12;;;;;;;11.27;4.20;;;;;;;15.78;74.28;98448.28;5036100;28;20669;-77
2023/05/30 05:44:39;;;;;;;6.40;4.10;;;;;;;16.05;71.97;98449.28;5035473;28;20217;-77
2023/05/30 05:47:05;;;;;;;9.13;4.63;;;;;;;15.82;75.05;98457.47;5036078;28;20221;-77
2023/05/30 05:49:32;;;;;;;9.13;4.10;;;;;;;15.87;72.73;98452.19;5036221;28;20233;-77
2023/05/30 05:51:58;;;;;;;7.93;4.00;;;;;;;15.90;73.01;98453.56;5035573;28;20210;-77
2023/05/30 05:54:24;;;;;;;5.83;4.50;;;;;;;16.10;72.47;98448.56;5034887;28;20206;-77
2023/05/30 05:56:51;;;;;;;9.33;4.10;;;;;;;15.65;72.60;98451.25;5036820;28;20783;-77
2023/05/30 05:59:17;;;;;;;7.40;4.07;;;;;;;15.88;72.29;98451.13;5035687;28;20560;-77
2023/05/30 06:01:44;;;;;;;4.57;4.13;;;;;;;15.82;72.02;98457.47;5036724;28;20202;-78
2023/05/30 06:04:12;;;;;;;6.43;4.30;;;;;;;16.15;73.80;98459.34;5035438;28;20648;-77
2023/05/30 06:06:39;;;;;;;7.23;4.00;;;;;;;16.26;72.21;98450.41;5035435;28;20226;-77
2023/05/30 06:09:06;;;;;;;4.53;3.60;;;;;;;16.42;70.24;98461.13;5034870;28;20217;-77
2023/05/30 06:11:33;;;;;;;5.63;3.83;;;;;;;16.49;70.15;98461.78;5035313;28;20228;-77
2023/05/30 06:13:59;;;;;;;6.90;4.27;;;;;;;16.22;71.20;98471.53;5037651;28;20324;-76
2023/05/30 06:16:26;;;;;;;6.97;4.00;;;;;;;16.41;70.34;98469.44;5054241;28;20236;-75
2023/05/30 06:18:52;;;;;;;5.63;4.07;;;;;;;16.44;69.00;98475.13;5053876;28;20197;-76
2023/05/30 06:21:18;;;;;;;5.80;4.10;;;;;;;16.40;70.44;98476.69;5054023;28;20194;-78
2023/05/30 06:23:45;;;;;;;6.13;3.80;;;;;;;16.64;69.55;98474.63;5055421;28;20203;-78
2023/05/30 06:26:11;;;;;;;6.27;4.03;;;;;;;16.83;67.65;98470.59;5054251;28;20309;-75
2023/05/30 06:28:37;;;;;;;7.63;4.00;;;;;;;16.57;68.13;98482.03;5053964;28;20205;-76
2023/05/30 06:31:04;;;;;;;8.00;3.93;;;;;;;16.76;67.02;98476.13;5052918;28;20217;-75
2023/05/30 06:33:30;;;;;;;5.63;3.60;;;;;;;16.44;69.15;98479.69;5052555;28;20575;-76
2023/05/30 06:35:56;;;;;;;5.90;3.83;;;;;;;16.54;67.55;98482.50;5052639;28;20252;-76
2023/05/30 06:38:23;;;;;;;7.77;3.73;;;;;;;16.87;67.93;98482.47;5052939;28;20228;-75
2023/05/30 06:40:50;;;;;;;9.57;4.03;;;;;;;16.58;66.43;98487.16;5052498;28;20260;-73
2023/05/30 06:43:17;;;;;;;5.80;3.90;;;;;;;16.55;68.03;98495.69;5053334;28;20258;-74
2023/05/30 06:45:44;;;;;;;7.07;3.73;;;;;;;16.72;67.93;98499.16;5054594;28;20576;-74
2023/05/30 06:48:10;;;;;;;5.03;3.50;;;;;;;17.17;67.66;98498.94;5054740;28;20207;-73
2023/05/30 06:50:36;;;;;;;6.47;3.90;;;;;;;16.64;65.54;98494.22;5055205;28;20224;-73
2023/05/30 06:53:03;;;;;;;6.57;3.90;;;;;;;16.77;65.64;98498.41;5054128;28;20209;-74
2023/05/30 06:55:29;;;;;;;5.73;3.23;;;;;;;16.83;66.40;98503.59;5054596;28;20225;-74
2023/05/30 06:57:56;;;;;;;10.97;4.20;;;;;;;16.75;67.68;98501.38;5054836;28;20216;-74
2023/05/30 07:00:22;;;;;;;8.83;3.60;;;;;;;17.17;64.62;98499.78;5054754;28;20207;-74
2023/05/30 07:02:49;;;;;;;4.33;3.67;;;;;;;17.31;64.92;98492.97;5054161;28;20213;-74
2023/05/30 07:05:15;;;;;;;5.37;3.83;;;;;;;17.24;63.64;98495.00;5054177;28;20625;-74
2023/05/30 07:07:43;;;;;;;6.63;3.63;;;;;;;16.92;65.57;98487.91;5054723;28;20216;-74
2023/05/30 07:10:10;;;;;;;5.87;3.27;;;;;;;16.93;64.42;98487.66;5054617;28;20221;-74
2023/05/30 07:12:36;;;;;;;7.03;4.23;;;;;;;16.82;64.56;98487.78;5055483;28;20201;-74
2023/05/30 07:15:03;;;;;;;11.07;4.40;;;;;;;17.16;65.38;98490.09;5055133;28;20201;-74
2023/05/30 07:17:30;;;;;;;9.73;3.77;;;;;;;17.21;61.99;98487.47;5054212;28;20244;-73
2023/05/30 07:19:56;;;;;;;7.40;3.80;;;;;;;17.18;62.62;98493.34;5054015;28;20241;-73
2023/05/30 07:22:22;;;;;;;7.23;3.90;;;;;;;17.29;63.15;98489.69;5053975;28;20572;-74
2023/05/30 07:24:49;;;;;;;6.23;3.67;;;;;;;17.13;64.50;98497.81;5054651;28;20231;-74
2023/05/30 07:27:15;;;;;;;4.47;3.57;;;;;;;17.38;64.30;98493.56;5054838;28;20228;-74
2023/05/30 07:29:42;;;;;;;5.23;3.73;;;;;;;17.52;63.18;98504.78;5054489;28;20205;-74
2023/05/30 07:32:10;;;;;;;5.73;3.33;;;;;;;17.52;64.22;98494.84;5054129;28;20580;-74
2023/05/30 07:34:37;;;;;;;6.93;3.70;;;;;;;17.61;63.95;98498.72;5054590;28;20208;-74
2023/05/30 07:37:03;;;;;;;6.13;3.53;;;;;;;17.68;63.99;98501.19;5054475;28;20229;-74
2023/05/30 07:39:30;;;;;;;7.27;3.50;;;;;;;17.85;63.77;98496.53;5054823;28;20205;-74
2023/05/30 07:41:56;;;;;;;6.43;3.60;;;;;;;18.01;63.42;98495.59;5055461;28;20202;-74
2023/05/30 07:44:22;;;;;;;7.40;3.43;;;;;;;18.04;64.21;98506.66;5054596;28;20205;-74
2023/05/30 07:46:49;;;;;;;4.03;3.43;;;;;;;17.44;65.70;98506.03;5054134;28;20236;-75
2023/05/30 07:49:15;;;;;;;6.10;3.50;;;;;;;17.06;63.37;98492.63;5054180;28;20212;-74
2023/05/30 07:51:44;;;;;;;7.70;3.70;;;;;;;17.50;64.23;98486.22;5054677;28;20229;-74
2023/05/30 07:54:10;;;;;;;4.57;3.80;;;;;;;17.74;60.77;98487.53;5054852;28;20214;-74
2023/05/30 07:56:36;;;;;;;7.33;3.97;;;;;;;17.68;60.93;98498.50;5054689;28;20225;-74
2023/05/30 07:59:03;;;;;;;5.93;3.60;;;;;;;17.36;61.44;98489.50;5054823;28;20235;-73
2023/05/30 08:01:30;;;;;;;8.30;4.00;;;;;;;17.77;63.06;98496.97;5053567;28;20201;-74
2023/05/30 08:03:57;;;;;;;6.73;3.60;;;;;;;17.89;63.22;98482.31;5053279;28;20539;-74
2023/05/30 08:06:23;;;;;;;7.37;3.93;;;;;;;18.24;62.54;98487.19;5057748;28;20217;-74
2023/05/30 08:08:49;;;;;;;6.73;3.80;;;;;;;18.26;60.40;98491.25;5057479;28;20201;-73
2023/05/30 08:11:16;;;;;;;9.77;4.00;;;;;;;18.18;60.99;98489.03;5054641;28;20209;-73
2023/05/30 08:13:45;;;;;;;6.30;3.77;;;;;;;18.34;61.16;98490.00;5056973;28;20676;-74
2023/05/30 08:16:12;;;;;;;10.20;4.03;;;;;;;18.28;59.62;98481.03;5057309;28;20225;-74
2023/05/30 08:18:38;;;;;;;5.67;3.90;;;;;;;18.60;58.76;98479.13;5057081;28;20204;-74
2023/05/30 08:21:05;;;;;;;7.47;3.67;;;;;;;18.57;59.96;98476.97;5057113;28;20197;-73
2023/05/30 08:23:31;;;;;;;8.30;3.70;;;;;;;19.03;56.81;98481.53;5057312;28;20202;-73
2023/05/30 08:25:58;;;;;;;6.50;3.80;;;;;;;19.05;58.13;98487.47;5057173;28;20708;-73
2023/05/30 08:28:24;;;;;;;5.87;3.60;;;;;;;19.20;57.36;98484.03;5057207;28;20213;-74
2023/05/30 08:30:51;;;;;;;6.47;3.90;;;;;;;18.96;55.83;98494.44;5057265;28;20221;-74
2023/05/30 08:33:18;;;;;;;6.33;3.50;;;;;;;19.06;59.13;98486.41;5057581;28;20266;-74
2023/05/30 08:35:45;;;;;;;10.30;4.03;;;;;;;19.05;57.49;98484.78;5057472;28;20240;-74
2023/05/30 08:38:12;;;;;;;7.93;3.80;;;;;;;19.04;56.58;98490.41;5056778;28;20205;-74
2023/05/30 08:40:43;;;;;;;5.00;3.70;;;;;;;19.07;55.83;98479.94;5057178;28;20206;-74
2023/05/30 08:43:10;;;;;;;5.73;3.57;;;;;;;19.17;55.70;98487.25;5058487;28;20304;-75
2023/05/30 08:45:37;;;;;;;5.13;3.40;;;;;;;18.66;56.52;98482.66;5058237;28;20225;-75
2023/05/30 08:48:06;;;;;;;6.47;3.50;;;;;;;19.22;55.47;98488.13;5057982;28;20212;-74
2023/05/30 08:50:36;;;;;;;5.13;3.37;;;;;;;18.97;53.81;98490.69;5057630;28;20581;-75
2023/05/30 08:53:12;;;;;;;6.13;3.60;;;;;;;19.35;55.59;98487.63;5058242;28;20193;-74
2023/05/30 08:55:55;;;;;;;4.77;3.40;;;;;;;19.50;52.50;98482.28;5057429;28;20236;-74
2023/05/30 08:58:35;;;;;;;5.70;3.43;;;;;;;19.61;54.59;98477.72;5057442;28;20193;-75
2023/05/30 09:01:02;;;;;;;6.23;3.60;;;;;;;19.93;54.39;98472.94;5057534;28;20189;-74
2023/05/30 09:03:31;;;;;;;5.07;3.63;;;;;;;19.99;52.30;98477.25;5057294;28;20213;-74
2023/05/30 09:05:58;;;;;;;5.87;3.77;;;;;;;20.00;52.42;98472.66;5057277;28;20245;-74
2023/05/30 09:08:25;;;;;;;6.97;3.20;;;;;;;20.04;51.37;98473.75;5056934;28;20656;-74
2023/05/30 09:10:51;;;;;;;5.27;3.50;;;;;;;19.88;53.37;98466.69;5057163;28;20248;-74
2023/05/30 09:13:18;;;;;;;7.17;3.63;;;;;;;20.16;51.88;98466.25;5057016;28;20212;-74
2023/05/30 09:15:45;;;;;;;10.33;3.80;;;;;;;20.22;51.50;98465.16;5056769;28;20221;-74
2023/05/30 09:18:12;;;;;;;7.33;3.53;;;;;;;20.42;52.89;98465.94;5057381;28;20193;-74
2023/05/30 09:20:40;;;;;;;8.17;3.30;;;;;;;20.40;51.65;98470.81;5056954;28;20197;-74
2023/05/30 09:23:10;;;;;;;6.43;3.47;;;;;;;20.37;50.10;98476.75;5057030;28;20618;-74
2023/05/30 09:25:48;;;;;;;7.07;3.30;;;;;;;20.76;50.87;98463.47;5057081;28;20232;-74
2023/05/30 09:28:15;;;;;;;6.53;3.27;;;;;;;20.59;50.78;98458.34;5056580;28;20205;-74
2023/05/30 09:31:01;;;;;;;4.23;3.43;;;;;;;20.42;50.25;98471.34;5057173;28;20221;-75
2023/05/30 09:33:48;;;;;;;6.00;3.10;;;;;;;20.61;50.67;98460.78;5054619;28;20656;-75
2023/05/30 09:36:26;;;;;;;7.77;3.77;;;;;;;20.69;50.05;98471.84;5056192;28;20217;-75
2023/05/30 09:39:01;;;;;;;5.23;3.43;;;;;;;20.88;49.61;98472.06;5056996;28;20192;-75
2023/05/30 09:41:29;;;;;;;9.97;3.60;;;;;;;21.08;49.86;98477.44;5056744;28;20204;-75
2023/05/30 09:43:57;;;;;;;5.40;3.50;;;;;;;20.61;49.63;98458.88;5055947;28;20665;-75
2023/05/30 09:46:35;;;;;;;4.83;3.37;;;;;;;21.15;50.04;98476.06;5050152;28;20213;-76
2023/05/30 09:49:10;;;;;;;5.77;3.47;;;;;;;21.34;48.73;98465.44;5054907;28;20200;-76
2023/05/30 09:51:38;;;;;;;5.47;3.07;;;;;;;21.49;47.96;98468.06;5054881;28;20205;-76
2023/05/30 09:54:09;;;;;;;3.83;3.40;;;;;;;21.70;48.61;98469.59;5052498;28;20197;-76
2023/05/30 09:56:40;;;;;;;6.57;3.57;;;;;;;21.56;46.81;98474.78;5054112;28;20322;-76
2023/05/30 09:59:14;;;;;;;4.77;3.30;;;;;;;20.68;47.62;98466.72;5051521;28;20545;-76
2023/05/30 10:01:42;;;;;;;5.67;3.47;;;;;;;21.19;47.79;98466.31;5054571;28;20272;-75
2023/05/30 10:04:17;;;;;;;4.03;3.30;;;;;;;21.57;48.05;98470.19;5054919;28;20728;-74
2023/05/30 10:06:47;;;;;;;5.33;3.17;;;;;;;21.64;47.22;98467.97;5053041;28;20217;-75
2023/05/30 10:09:14;;;;;;;4.20;3.17;;;;;;;21.76;48.66;98468.47;5054783;28;20198;-75
2023/05/30 10:11:42;;;;;;;3.93;3.13;;;;;;;22.03;45.86;98463.41;5054690;28;20307;-74
2023/05/30 10:14:10;;;;;;;5.87;3.80;;;;;;;21.92;48.00;98459.97;5055090;28;20208;-74
2023/05/30 10:16:48;;;;;;;5.73;3.47;;;;;;;21.83;47.33;98450.84;5054542;28;20225;-75
2023/05/30 10:19:18;;;;;;;12.63;7.30;;;;;;;22.12;46.38;98450.91;5054371;28;20197;-75
2023/05/30 10:21:45;;;;;;;10.13;6.40;;;;;;;21.22;46.28;98451.44;5054477;28;20676;-75
2023/05/30 10:24:16;;;;;;;7.32;3.60;;;;;;;22.01;47.60;98443.91;5053943;28;20205;-75
2023/05/30 10:26:55;;;;;;;6.80;3.73;;;;;;;21.91;46.09;98438.59;5053902;28;20704;-75
2023/05/30 10:29:28;;;;;;;4.80;3.37;;;;;;;22.39;44.21;98441.16;5051991;28;20205;-74
2023/05/30 10:31:55;;;;;;;7.75;5.97;;;;;;;22.73;44.04;98432.97;5051929;28;20216;-75
2023/05/30 10:34:35;;;;;;;6.70;3.60;;;;;;;22.54;43.43;98426.69;5054109;28;20237;-75
2023/05/30 10:37:03;;;;;;;5.53;3.53;;;;;;;22.45;43.96;98429.22;5051594;28;20224;-75
2023/05/30 10:39:43;;;;;;;5.70;3.45;;;;;;;22.85;43.33;98430.69;5048956;28;20201;-75
2023/05/30 10:42:23;;;;;;;5.90;3.10;;;;;;;22.76;43.85;98425.09;5050285;28;20189;-75
2023/05/30 10:44:59;;;;;;;10.80;4.13;;;;;;;22.83;42.76;98430.19;5054700;28;20205;-75
2023/05/30 10:47:39;;;;;;;5.07;3.40;;;;;;;22.29;42.52;98430.41;5037101;28;20236;-75
2023/05/30 10:50:14;;;;;;;4.70;3.40;;;;;;;22.86;43.82;98429.59;5054305;28;20193;-75
2023/05/30 10:52:41;;;;;;;3.90;2.95;;;;;;;22.36;42.07;98430.09;5053548;28;20300;-74
2023/05/30 10:55:10;;;;;;;4.65;2.95;;;;;;;22.50;43.66;98436.47;5054229;28;20239;-74
2023/05/30 10:57:36;;;;;;;5.13;2.97;;;;;;;22.64;43.61;98432.00;5054272;28;20201;-74
2023/05/30 11:00:22;;;;;;;5.95;3.20;;;;;;;22.67;42.87;98432.25;5053681;28;20343;-74
2023/05/30 11:02:57;;;;;;;3.80;2.80;;;;;;;22.93;41.38;98435.50;5054237;28;20190;-74
2023/05/30 11:05:33;;;;;;;6.40;3.50;;;;;;;22.90;41.12;98427.91;5053835;28;20192;-73
2023/05/30 11:08:01;;;;;;;4.78;2.88;;;;;;;22.67;40.47;98428.72;5054076;28;20562;-73
2023/05/30 11:10:31;;;;;;;6.70;3.03;;;;;;;23.07;39.62;98425.56;5053922;28;20203;-73
2023/05/30 11:13:09;;;;;;;3.30;2.90;;;;;;;23.10;40.18;98420.34;5054691;28;20221;-73
2023/05/30 11:15:36;;;;;;;4.32;3.17;;;;;;;23.16;41.79;98421.88;5053606;28;20225;-73
2023/05/30 11:18:21;;;;;;;6.30;3.17;;;;;;;23.36;40.35;98420.84;5053502;28;20664;-73
2023/05/30 11:20:56;;;;;;;6.57;3.45;;;;;;;22.94;40.02;98409.97;5053848;28;20243;-74
2023/05/30 11:23:24;;;;;;;4.65;3.35;;;;;;;23.15;41.53;98416.78;5053626;28;20231;-74
2023/05/30 11:25:54;;;;;;;4.38;3.17;;;;;;;23.29;40.85;98413.06;5053332;28;20716;-73
2023/05/30 11:28:34;;;;;;;6.00;3.53;;;;;;;22.62;38.89;98404.38;5054200;28;20216;-73
2023/05/30 11:31:15;;;;;;;5.68;2.88;;;;;;;22.97;40.53;98404.00;5053352;28;20637;-74
2023/05/30 11:33:42;;;;;;;4.90;2.70;;;;;;;23.13;39.21;98400.78;5053801;28;20193;-73
2023/05/30 11:36:12;;;;;;;13.95;11.05;;;;;;;23.34;40.63;98404.84;5053243;28;20590;-74
2023/05/30 11:38:45;;;;;;;4.47;3.17;;;;;;;23.34;40.25;98404.06;5053771;28;20287;-73
2023/05/30 11:41:14;;;;;;;6.50;3.13;;;;;;;23.48;38.41;98399.53;5057442;28;20553;-73